WI87 weather

Pine River Airport
Merrill, Wisconsin, United States

Public forecast

Using degrees Fahrenheit for public forecast. Weather courtesy of forecast.io.

Closest aviation weather report (METAR) to Pine River Airport

Closest report is Merrill Municipal Airport, 8.0 nm (14.8 km) W. Retrieved 2020/02/23 14:35 UTC (0 seconds ago):

KRRL 231435Z AUTO 23004KT 4SM BR OVC005 M01/M02 A2978 RMK AO2 T10131020 TSNO

Closest aviation forecast (TAF) to Pine River Airport

Closest forecast is Wausau Downtown Airport, 17.2 nm (31.8 km) SSW. Retrieved 2020/02/23 12:33 UTC (2 hours ago):

TAF KAUW 231130Z 2312/2412 22006KT P6SM SCT012 TEMPO 2312/2314 4SM BR FM231500 25008KT P6SM SCT250 FM231700 27011G18KT P6SM SCT250 WS016/29035KT FM240000 29009G15KT P6SM SCT250 FM240200 29006KT P6SM BKN250 FM241000 33005KT P6SM SCT012